sensor_id;sensor_type;location;lat;lon;timestamp;P1;durP1;ratioP1;P2;durP2;ratioP2
3261;SDS011;1643;47.746;9.000;2022-10-31T00:01:36;6.33;;;5.70;;
3261;SDS011;1643;47.746;9.000;2022-10-31T00:04:02;6.80;;;5.50;;
3261;SDS011;1643;47.746;9.000;2022-10-31T00:06:29;6.20;;;5.60;;
3261;SDS011;1643;47.746;9.000;2022-10-31T00:08:59;12.03;;;6.57;;
3261;SDS011;1643;47.746;9.000;2022-10-31T00:11:25;7.77;;;6.93;;
3261;SDS011;1643;47.746;9.000;2022-10-31T00:13:51;8.23;;;6.00;;
3261;SDS011;1643;47.746;9.000;2022-10-31T00:16:18;7.10;;;6.40;;
3261;SDS011;1643;47.746;9.000;2022-10-31T00:18:47;7.13;;;6.43;;
3261;SDS011;1643;47.746;9.000;2022-10-31T00:21:14;6.00;;;5.47;;
3261;SDS011;1643;47.746;9.000;2022-10-31T00:23:40;7.50;;;5.90;;
3261;SDS011;1643;47.746;9.000;2022-10-31T00:26:06;9.40;;;5.77;;
3261;SDS011;1643;47.746;9.000;2022-10-31T00:28:32;6.20;;;5.60;;
3261;SDS011;1643;47.746;9.000;2022-10-31T00:31:01;7.50;;;5.57;;
3261;SDS011;1643;47.746;9.000;2022-10-31T00:33:28;6.67;;;5.93;;
3261;SDS011;1643;47.746;9.000;2022-10-31T00:35:54;7.00;;;6.30;;
3261;SDS011;1643;47.746;9.000;2022-10-31T00:38:20;7.13;;;5.60;;
3261;SDS011;1643;47.746;9.000;2022-10-31T00:40:46;7.37;;;5.87;;
3261;SDS011;1643;47.746;9.000;2022-10-31T00:43:12;6.20;;;5.60;;
3261;SDS011;1643;47.746;9.000;2022-10-31T00:45:38;7.23;;;5.80;;
3261;SDS011;1643;47.746;9.000;2022-10-31T00:48:04;7.73;;;6.53;;
3261;SDS011;1643;47.746;9.000;2022-10-31T00:50:30;9.27;;;6.30;;
3261;SDS011;1643;47.746;9.000;2022-10-31T00:52:56;7.60;;;5.70;;
3261;SDS011;1643;47.746;9.000;2022-10-31T00:55:23;6.53;;;5.90;;
3261;SDS011;1643;47.746;9.000;2022-10-31T00:57:49;7.50;;;6.30;;
3261;SDS011;1643;47.746;9.000;2022-10-31T01:00:15;7.50;;;6.70;;
3261;SDS011;1643;47.746;9.000;2022-10-31T01:02:41;6.97;;;6.23;;
3261;SDS011;1643;47.746;9.000;2022-10-31T01:05:07;10.03;;;6.50;;
3261;SDS011;1643;47.746;9.000;2022-10-31T01:07:36;7.80;;;6.70;;
3261;SDS011;1643;47.746;9.000;2022-10-31T01:10:02;7.00;;;6.10;;
3261;SDS011;1643;47.746;9.000;2022-10-31T01:12:29;6.70;;;5.90;;
3261;SDS011;1643;47.746;9.000;2022-10-31T01:14:55;6.30;;;5.70;;
3261;SDS011;1643;47.746;9.000;2022-10-31T01:17:20;8.87;;;6.23;;
3261;SDS011;1643;47.746;9.000;2022-10-31T01:19:46;6.70;;;5.87;;
3261;SDS011;1643;47.746;9.000;2022-10-31T01:22:12;7.20;;;6.50;;
3261;SDS011;1643;47.746;9.000;2022-10-31T01:24:38;7.40;;;6.20;;
3261;SDS011;1643;47.746;9.000;2022-10-31T01:27:04;7.07;;;5.90;;
3261;SDS011;1643;47.746;9.000;2022-10-31T01:29:30;7.13;;;6.30;;
3261;SDS011;1643;47.746;9.000;2022-10-31T01:31:56;6.77;;;6.17;;
3261;SDS011;1643;47.746;9.000;2022-10-31T01:34:22;7.83;;;6.83;;
3261;SDS011;1643;47.746;9.000;2022-10-31T01:36:48;7.23;;;6.63;;
3261;SDS011;1643;47.746;9.000;2022-10-31T01:39:16;9.30;;;7.37;;
3261;SDS011;1643;47.746;9.000;2022-10-31T01:41:44;10.80;;;6.70;;
3261;SDS011;1643;47.746;9.000;2022-10-31T01:46:49;7.80;;;7.00;;
3261;SDS011;1643;47.746;9.000;2022-10-31T01:51:45;7.80;;;7.00;;
3261;SDS011;1643;47.746;9.000;2022-10-31T01:54:14;6.97;;;6.27;;
3261;SDS011;1643;47.746;9.000;2022-10-31T01:56:42;8.30;;;7.47;;
3261;SDS011;1643;47.746;9.000;2022-10-31T01:59:10;9.10;;;6.87;;
3261;SDS011;1643;47.746;9.000;2022-10-31T02:01:37;7.17;;;6.43;;
3261;SDS011;1643;47.746;9.000;2022-10-31T02:04:03;7.80;;;7.03;;
3261;SDS011;1643;47.746;9.000;2022-10-31T02:06:46;8.93;;;7.30;;
3261;SDS011;1643;47.746;9.000;2022-10-31T02:09:13;9.73;;;7.33;;
3261;SDS011;1643;47.746;9.000;2022-10-31T02:11:40;8.97;;;7.03;;
3261;SDS011;1643;47.746;9.000;2022-10-31T02:14:06;7.90;;;7.10;;
3261;SDS011;1643;47.746;9.000;2022-10-31T02:16:32;11.73;;;7.93;;
3261;SDS011;1643;47.746;9.000;2022-10-31T02:18:58;9.60;;;8.13;;
3261;SDS011;1643;47.746;9.000;2022-10-31T02:24:15;8.50;;;7.70;;
3261;SDS011;1643;47.746;9.000;2022-10-31T02:37:52;7.83;;;6.87;;
3261;SDS011;1643;47.746;9.000;2022-10-31T02:40:33;8.10;;;6.90;;
3261;SDS011;1643;47.746;9.000;2022-10-31T02:43:14;6.90;;;6.20;;
3261;SDS011;1643;47.746;9.000;2022-10-31T02:45:44;8.50;;;6.60;;
3261;SDS011;1643;47.746;9.000;2022-10-31T02:48:14;10.77;;;6.97;;
3261;SDS011;1643;47.746;9.000;2022-10-31T02:50:42;7.50;;;6.50;;
3261;SDS011;1643;47.746;9.000;2022-10-31T02:53:09;7.53;;;6.70;;
3261;SDS011;1643;47.746;9.000;2022-10-31T02:58:02;7.57;;;6.43;;
3261;SDS011;1643;47.746;9.000;2022-10-31T03:03:15;7.83;;;7.03;;
3261;SDS011;1643;47.746;9.000;2022-10-31T03:10:55;8.00;;;6.70;;
3261;SDS011;1643;47.746;9.000;2022-10-31T03:13:26;6.87;;;6.17;;
3261;SDS011;1643;47.746;9.000;2022-10-31T03:16:02;9.17;;;7.17;;
3261;SDS011;1643;47.746;9.000;2022-10-31T03:18:34;6.90;;;6.23;;
3261;SDS011;1643;47.746;9.000;2022-10-31T03:21:10;7.40;;;6.77;;
3261;SDS011;1643;47.746;9.000;2022-10-31T03:23:39;7.10;;;6.40;;
3261;SDS011;1643;47.746;9.000;2022-10-31T03:26:06;8.07;;;7.27;;
3261;SDS011;1643;47.746;9.000;2022-10-31T03:28:38;9.00;;;7.00;;
3261;SDS011;1643;47.746;9.000;2022-10-31T03:31:05;7.27;;;6.57;;
3261;SDS011;1643;47.746;9.000;2022-10-31T03:33:33;6.83;;;6.17;;
3261;SDS011;1643;47.746;9.000;2022-10-31T03:36:00;6.60;;;6.00;;
3261;SDS011;1643;47.746;9.000;2022-10-31T03:38:28;7.73;;;6.03;;
3261;SDS011;1643;47.746;9.000;2022-10-31T03:40:55;7.20;;;6.50;;
3261;SDS011;1643;47.746;9.000;2022-10-31T03:43:23;8.23;;;7.30;;
3261;SDS011;1643;47.746;9.000;2022-10-31T03:45:50;7.40;;;6.70;;
3261;SDS011;1643;47.746;9.000;2022-10-31T03:48:16;8.23;;;6.67;;
3261;SDS011;1643;47.746;9.000;2022-10-31T03:53:17;6.33;;;5.73;;
3261;SDS011;1643;47.746;9.000;2022-10-31T03:55:49;8.30;;;7.17;;
3261;SDS011;1643;47.746;9.000;2022-10-31T03:58:32;9.47;;;7.40;;
3261;SDS011;1643;47.746;9.000;2022-10-31T04:01:03;8.50;;;7.53;;
3261;SDS011;1643;47.746;9.000;2022-10-31T04:03:34;7.80;;;7.10;;
3261;SDS011;1643;47.746;9.000;2022-10-31T04:06:03;8.10;;;7.30;;
3261;SDS011;1643;47.746;9.000;2022-10-31T04:08:31;8.80;;;7.37;;
3261;SDS011;1643;47.746;9.000;2022-10-31T04:10:58;8.23;;;7.30;;
3261;SDS011;1643;47.746;9.000;2022-10-31T04:13:26;9.33;;;7.40;;
3261;SDS011;1643;47.746;9.000;2022-10-31T04:15:53;8.43;;;7.57;;
3261;SDS011;1643;47.746;9.000;2022-10-31T04:18:21;8.33;;;7.50;;
3261;SDS011;1643;47.746;9.000;2022-10-31T04:20:47;9.47;;;7.90;;
3261;SDS011;1643;47.746;9.000;2022-10-31T04:23:22;7.80;;;7.00;;
3261;SDS011;1643;47.746;9.000;2022-10-31T04:25:49;8.10;;;7.07;;
3261;SDS011;1643;47.746;9.000;2022-10-31T04:28:15;9.63;;;8.60;;
3261;SDS011;1643;47.746;9.000;2022-10-31T04:30:41;9.20;;;8.20;;
3261;SDS011;1643;47.746;9.000;2022-10-31T04:33:07;8.23;;;7.40;;
3261;SDS011;1643;47.746;9.000;2022-10-31T04:35:33;9.17;;;8.20;;
3261;SDS011;1643;47.746;9.000;2022-10-31T04:37:59;8.63;;;7.17;;
3261;SDS011;1643;47.746;9.000;2022-10-31T04:40:25;7.57;;;6.83;;
3261;SDS011;1643;47.746;9.000;2022-10-31T04:42:51;7.80;;;7.00;;
3261;SDS011;1643;47.746;9.000;2022-10-31T04:45:17;10.03;;;7.93;;
3261;SDS011;1643;47.746;9.000;2022-10-31T04:47:42;8.50;;;7.70;;
3261;SDS011;1643;47.746;9.000;2022-10-31T04:50:09;8.73;;;7.83;;
3261;SDS011;1643;47.746;9.000;2022-10-31T04:52:38;10.20;;;7.83;;
3261;SDS011;1643;47.746;9.000;2022-10-31T04:55:04;11.27;;;9.03;;
3261;SDS011;1643;47.746;9.000;2022-10-31T04:57:30;10.23;;;8.47;;
3261;SDS011;1643;47.746;9.000;2022-10-31T04:59:56;9.17;;;8.30;;
3261;SDS011;1643;47.746;9.000;2022-10-31T05:02:22;8.00;;;7.23;;
3261;SDS011;1643;47.746;9.000;2022-10-31T05:04:48;8.13;;;7.37;;
3261;SDS011;1643;47.746;9.000;2022-10-31T05:07:14;9.23;;;8.33;;
3261;SDS011;1643;47.746;9.000;2022-10-31T05:09:40;8.57;;;7.67;;
3261;SDS011;1643;47.746;9.000;2022-10-31T05:12:06;8.90;;;8.00;;
3261;SDS011;1643;47.746;9.000;2022-10-31T05:14:32;11.17;;;9.00;;
3261;SDS011;1643;47.746;9.000;2022-10-31T05:16:58;8.80;;;7.90;;
3261;SDS011;1643;47.746;9.000;2022-10-31T05:19:24;8.70;;;7.80;;
3261;SDS011;1643;47.746;9.000;2022-10-31T05:21:50;10.73;;;7.87;;
3261;SDS011;1643;47.746;9.000;2022-10-31T05:24:16;9.13;;;8.30;;
3261;SDS011;1643;47.746;9.000;2022-10-31T05:26:42;9.23;;;8.33;;
3261;SDS011;1643;47.746;9.000;2022-10-31T05:29:08;9.10;;;8.20;;
3261;SDS011;1643;47.746;9.000;2022-10-31T05:31:34;8.87;;;7.97;;
3261;SDS011;1643;47.746;9.000;2022-10-31T05:34:00;11.17;;;8.50;;
3261;SDS011;1643;47.746;9.000;2022-10-31T05:36:26;10.30;;;8.10;;
3261;SDS011;1643;47.746;9.000;2022-10-31T05:38:52;9.50;;;8.50;;
3261;SDS011;1643;47.746;9.000;2022-10-31T05:41:18;9.37;;;8.40;;
3261;SDS011;1643;47.746;9.000;2022-10-31T05:43:44;10.47;;;8.50;;
3261;SDS011;1643;47.746;9.000;2022-10-31T05:46:10;9.93;;;8.90;;
3261;SDS011;1643;47.746;9.000;2022-10-31T05:48:36;9.50;;;8.50;;
3261;SDS011;1643;47.746;9.000;2022-10-31T05:51:02;10.23;;;8.67;;
3261;SDS011;1643;47.746;9.000;2022-10-31T05:53:28;11.00;;;9.33;;
3261;SDS011;1643;47.746;9.000;2022-10-31T05:55:54;10.50;;;8.17;;
3261;SDS011;1643;47.746;9.000;2022-10-31T05:58:20;8.90;;;8.00;;
3261;SDS011;1643;47.746;9.000;2022-10-31T06:00:46;9.97;;;8.50;;
3261;SDS011;1643;47.746;9.000;2022-10-31T06:03:12;10.00;;;8.93;;
3261;SDS011;1643;47.746;9.000;2022-10-31T06:05:38;10.47;;;9.33;;
3261;SDS011;1643;47.746;9.000;2022-10-31T06:08:04;9.90;;;8.90;;
3261;SDS011;1643;47.746;9.000;2022-10-31T06:10:30;10.57;;;9.50;;
3261;SDS011;1643;47.746;9.000;2022-10-31T06:12:56;12.13;;;10.80;;
3261;SDS011;1643;47.746;9.000;2022-10-31T06:15:22;11.20;;;9.80;;
3261;SDS011;1643;47.746;9.000;2022-10-31T06:17:56;9.90;;;8.90;;
3261;SDS011;1643;47.746;9.000;2022-10-31T06:20:22;12.37;;;9.50;;
3261;SDS011;1643;47.746;9.000;2022-10-31T06:22:48;11.83;;;10.33;;
3261;SDS011;1643;47.746;9.000;2022-10-31T06:25:14;10.40;;;9.00;;
3261;SDS011;1643;47.746;9.000;2022-10-31T06:27:40;10.30;;;8.77;;
3261;SDS011;1643;47.746;9.000;2022-10-31T06:30:07;10.57;;;9.47;;
3261;SDS011;1643;47.746;9.000;2022-10-31T06:32:33;9.70;;;8.03;;
3261;SDS011;1643;47.746;9.000;2022-10-31T06:34:59;11.00;;;9.03;;
3261;SDS011;1643;47.746;9.000;2022-10-31T06:37:25;10.80;;;9.10;;
3261;SDS011;1643;47.746;9.000;2022-10-31T06:39:51;9.50;;;7.83;;
3261;SDS011;1643;47.746;9.000;2022-10-31T06:42:16;12.60;;;10.10;;
3261;SDS011;1643;47.746;9.000;2022-10-31T06:44:43;12.63;;;9.00;;
3261;SDS011;1643;47.746;9.000;2022-10-31T06:47:09;9.70;;;8.37;;
3261;SDS011;1643;47.746;9.000;2022-10-31T06:49:35;10.50;;;8.67;;
3261;SDS011;1643;47.746;9.000;2022-10-31T06:52:00;11.60;;;9.70;;
3261;SDS011;1643;47.746;9.000;2022-10-31T06:54:26;9.60;;;8.70;;
3261;SDS011;1643;47.746;9.000;2022-10-31T06:56:53;10.50;;;8.77;;
3261;SDS011;1643;47.746;9.000;2022-10-31T06:59:19;8.87;;;7.97;;
3261;SDS011;1643;47.746;9.000;2022-10-31T07:01:44;10.93;;;8.50;;
3261;SDS011;1643;47.746;9.000;2022-10-31T07:04:11;9.73;;;8.60;;
3261;SDS011;1643;47.746;9.000;2022-10-31T07:06:37;9.70;;;8.23;;
3261;SDS011;1643;47.746;9.000;2022-10-31T07:09:03;8.50;;;7.60;;
3261;SDS011;1643;47.746;9.000;2022-10-31T07:11:29;10.17;;;8.50;;
3261;SDS011;1643;47.746;9.000;2022-10-31T07:13:55;12.00;;;9.17;;
3261;SDS011;1643;47.746;9.000;2022-10-31T07:16:21;11.90;;;9.10;;
3261;SDS011;1643;47.746;9.000;2022-10-31T07:18:47;10.10;;;8.37;;
3261;SDS011;1643;47.746;9.000;2022-10-31T07:21:14;10.07;;;9.03;;
3261;SDS011;1643;47.746;9.000;2022-10-31T07:23:39;10.17;;;8.30;;
3261;SDS011;1643;47.746;9.000;2022-10-31T07:26:05;10.60;;;8.63;;
3261;SDS011;1643;47.746;9.000;2022-10-31T07:28:31;11.80;;;8.90;;
3261;SDS011;1643;47.746;9.000;2022-10-31T07:30:57;11.90;;;8.77;;
3261;SDS011;1643;47.746;9.000;2022-10-31T07:33:24;11.87;;;8.63;;
3261;SDS011;1643;47.746;9.000;2022-10-31T07:35:51;11.43;;;8.33;;
3261;SDS011;1643;47.746;9.000;2022-10-31T07:38:17;10.73;;;8.77;;
3261;SDS011;1643;47.746;9.000;2022-10-31T07:40:43;11.50;;;8.47;;
3261;SDS011;1643;47.746;9.000;2022-10-31T07:43:12;16.40;;;9.07;;
3261;SDS011;1643;47.746;9.000;2022-10-31T07:45:38;25.30;;;9.50;;
3261;SDS011;1643;47.746;9.000;2022-10-31T07:48:04;14.70;;;10.43;;
3261;SDS011;1643;47.746;9.000;2022-10-31T07:50:31;9.07;;;8.10;;
3261;SDS011;1643;47.746;9.000;2022-10-31T07:53:16;10.00;;;8.43;;
3261;SDS011;1643;47.746;9.000;2022-10-31T07:55:42;9.93;;;8.23;;
3261;SDS011;1643;47.746;9.000;2022-10-31T07:58:15;9.43;;;8.27;;
3261;SDS011;1643;47.746;9.000;2022-10-31T08:00:42;10.13;;;8.83;;
3261;SDS011;1643;47.746;9.000;2022-10-31T08:03:11;10.23;;;8.10;;
3261;SDS011;1643;47.746;9.000;2022-10-31T08:05:37;10.07;;;8.60;;
3261;SDS011;1643;47.746;9.000;2022-10-31T08:08:05;9.80;;;8.33;;
3261;SDS011;1643;47.746;9.000;2022-10-31T08:10:31;11.40;;;9.13;;
3261;SDS011;1643;47.746;9.000;2022-10-31T08:13:02;10.27;;;9.17;;
3261;SDS011;1643;47.746;9.000;2022-10-31T08:15:28;9.67;;;8.50;;
3261;SDS011;1643;47.746;9.000;2022-10-31T08:17:54;9.13;;;7.90;;
3261;SDS011;1643;47.746;9.000;2022-10-31T08:20:21;17.33;;;11.20;;
3261;SDS011;1643;47.746;9.000;2022-10-31T08:22:53;44.43;;;14.20;;
3261;SDS011;1643;47.746;9.000;2022-10-31T08:25:19;13.10;;;10.50;;
3261;SDS011;1643;47.746;9.000;2022-10-31T08:28:03;10.20;;;8.80;;
3261;SDS011;1643;47.746;9.000;2022-10-31T08:30:30;11.60;;;9.57;;
3261;SDS011;1643;47.746;9.000;2022-10-31T08:33:17;10.60;;;9.50;;
3261;SDS011;1643;47.746;9.000;2022-10-31T08:35:43;9.57;;;8.60;;
3261;SDS011;1643;47.746;9.000;2022-10-31T08:38:10;9.33;;;8.37;;
3261;SDS011;1643;47.746;9.000;2022-10-31T08:40:36;17.93;;;10.33;;
3261;SDS011;1643;47.746;9.000;2022-10-31T08:43:03;14.70;;;10.43;;
3261;SDS011;1643;47.746;9.000;2022-10-31T08:45:29;14.47;;;10.23;;
3261;SDS011;1643;47.746;9.000;2022-10-31T08:47:56;12.23;;;9.67;;
3261;SDS011;1643;47.746;9.000;2022-10-31T08:50:22;12.00;;;9.77;;
3261;SDS011;1643;47.746;9.000;2022-10-31T08:52:48;10.83;;;8.87;;
3261;SDS011;1643;47.746;9.000;2022-10-31T08:55:14;10.70;;;9.10;;
3261;SDS011;1643;47.746;9.000;2022-10-31T08:57:40;10.67;;;9.13;;
3261;SDS011;1643;47.746;9.000;2022-10-31T09:00:06;10.67;;;9.07;;
3261;SDS011;1643;47.746;9.000;2022-10-31T09:02:33;11.70;;;10.20;;
3261;SDS011;1643;47.746;9.000;2022-10-31T09:04:59;46.80;;;12.40;;
3261;SDS011;1643;47.746;9.000;2022-10-31T09:07:25;12.43;;;10.30;;
3261;SDS011;1643;47.746;9.000;2022-10-31T09:09:51;18.17;;;11.33;;
3261;SDS011;1643;47.746;9.000;2022-10-31T09:12:17;11.10;;;9.63;;
3261;SDS011;1643;47.746;9.000;2022-10-31T09:14:43;11.40;;;9.50;;
3261;SDS011;1643;47.746;9.000;2022-10-31T09:17:08;12.70;;;9.50;;
3261;SDS011;1643;47.746;9.000;2022-10-31T09:19:34;10.50;;;8.80;;
3261;SDS011;1643;47.746;9.000;2022-10-31T09:22:01;10.67;;;8.77;;
3261;SDS011;1643;47.746;9.000;2022-10-31T09:24:27;11.37;;;10.17;;
3261;SDS011;1643;47.746;9.000;2022-10-31T09:26:53;11.60;;;8.83;;
3261;SDS011;1643;47.746;9.000;2022-10-31T09:29:19;10.07;;;8.90;;
3261;SDS011;1643;47.746;9.000;2022-10-31T09:31:45;11.27;;;10.17;;
3261;SDS011;1643;47.746;9.000;2022-10-31T09:34:11;11.23;;;9.20;;
3261;SDS011;1643;47.746;9.000;2022-10-31T09:36:40;16.70;;;11.43;;
3261;SDS011;1643;47.746;9.000;2022-10-31T09:39:07;25.00;;;10.73;;
3261;SDS011;1643;47.746;9.000;2022-10-31T09:41:49;9.77;;;8.77;;
3261;SDS011;1643;47.746;9.000;2022-10-31T09:46:50;13.87;;;10.60;;
3261;SDS011;1643;47.746;9.000;2022-10-31T09:52:05;13.27;;;9.90;;
3261;SDS011;1643;47.746;9.000;2022-10-31T09:57:00;22.53;;;11.67;;
3261;SDS011;1643;47.746;9.000;2022-10-31T10:01:56;15.37;;;11.87;;
3261;SDS011;1643;47.746;9.000;2022-10-31T10:06:49;14.17;;;10.27;;
3261;SDS011;1643;47.746;9.000;2022-10-31T10:09:16;10.73;;;9.43;;
3261;SDS011;1643;47.746;9.000;2022-10-31T10:16:54;10.67;;;9.40;;
3261;SDS011;1643;47.746;9.000;2022-10-31T10:32:21;11.60;;;10.20;;
3261;SDS011;1643;47.746;9.000;2022-10-31T10:34:49;12.60;;;9.30;;
3261;SDS011;1643;47.746;9.000;2022-10-31T10:37:30;10.70;;;9.60;;
3261;SDS011;1643;47.746;9.000;2022-10-31T10:40:01;10.70;;;9.53;;
3261;SDS011;1643;47.746;9.000;2022-10-31T10:42:32;11.47;;;9.87;;
3261;SDS011;1643;47.746;9.000;2022-10-31T10:45:18;16.40;;;9.90;;
3261;SDS011;1643;47.746;9.000;2022-10-31T10:48:16;11.43;;;10.10;;
3261;SDS011;1643;47.746;9.000;2022-10-31T10:50:47;11.30;;;10.10;;
3261;SDS011;1643;47.746;9.000;2022-10-31T10:56:17;11.43;;;10.23;;
3261;SDS011;1643;47.746;9.000;2022-10-31T10:58:44;14.40;;;10.87;;
3261;SDS011;1643;47.746;9.000;2022-10-31T11:01:14;12.27;;;10.10;;
3261;SDS011;1643;47.746;9.000;2022-10-31T11:03:40;15.50;;;10.43;;
3261;SDS011;1643;47.746;9.000;2022-10-31T11:06:16;11.80;;;10.27;;
3261;SDS011;1643;47.746;9.000;2022-10-31T11:08:45;12.27;;;10.13;;
3261;SDS011;1643;47.746;9.000;2022-10-31T11:11:22;17.60;;;12.57;;
3261;SDS011;1643;47.746;9.000;2022-10-31T11:13:50;18.00;;;14.80;;
3261;SDS011;1643;47.746;9.000;2022-10-31T11:16:28;19.13;;;14.90;;
3261;SDS011;1643;47.746;9.000;2022-10-31T11:19:04;15.73;;;13.20;;
3261;SDS011;1643;47.746;9.000;2022-10-31T11:21:32;12.03;;;10.70;;
3261;SDS011;1643;47.746;9.000;2022-10-31T11:24:03;11.27;;;10.00;;
3261;SDS011;1643;47.746;9.000;2022-10-31T11:26:29;10.87;;;9.73;;
3261;SDS011;1643;47.746;9.000;2022-10-31T11:28:59;12.10;;;10.23;;
3261;SDS011;1643;47.746;9.000;2022-10-31T11:31:27;14.73;;;10.63;;
3261;SDS011;1643;47.746;9.000;2022-10-31T11:33:56;18.00;;;11.60;;
3261;SDS011;1643;47.746;9.000;2022-10-31T11:36:24;13.87;;;11.13;;
3261;SDS011;1643;47.746;9.000;2022-10-31T11:38:51;14.10;;;12.00;;
3261;SDS011;1643;47.746;9.000;2022-10-31T11:43:50;14.83;;;11.60;;
3261;SDS011;1643;47.746;9.000;2022-10-31T11:46:21;12.93;;;10.80;;
3261;SDS011;1643;47.746;9.000;2022-10-31T11:48:50;17.73;;;11.30;;
3261;SDS011;1643;47.746;9.000;2022-10-31T11:51:20;15.47;;;11.57;;
3261;SDS011;1643;47.746;9.000;2022-10-31T11:53:54;12.57;;;10.43;;
3261;SDS011;1643;47.746;9.000;2022-10-31T11:56:20;12.33;;;9.60;;
3261;SDS011;1643;47.746;9.000;2022-10-31T11:58:56;10.37;;;9.20;;
3261;SDS011;1643;47.746;9.000;2022-10-31T12:01:24;7.97;;;7.17;;
3261;SDS011;1643;47.746;9.000;2022-10-31T12:06:33;10.37;;;8.87;;
3261;SDS011;1643;47.746;9.000;2022-10-31T12:08:59;15.53;;;12.03;;
3261;SDS011;1643;47.746;9.000;2022-10-31T12:11:43;17.47;;;13.40;;
3261;SDS011;1643;47.746;9.000;2022-10-31T12:15:02;13.07;;;10.60;;
3261;SDS011;1643;47.746;9.000;2022-10-31T12:17:01;10.70;;;8.90;;
3261;SDS011;1643;47.746;9.000;2022-10-31T12:24:47;11.20;;;10.00;;
3261;SDS011;1643;47.746;9.000;2022-10-31T12:30:02;9.70;;;8.70;;
3261;SDS011;1643;47.746;9.000;2022-10-31T12:32:42;11.57;;;9.57;;
3261;SDS011;1643;47.746;9.000;2022-10-31T12:43:07;9.60;;;8.60;;
3261;SDS011;1643;47.746;9.000;2022-10-31T12:45:54;9.83;;;7.80;;
3261;SDS011;1643;47.746;9.000;2022-10-31T12:56:10;11.30;;;8.10;;
3261;SDS011;1643;47.746;9.000;2022-10-31T12:58:40;11.40;;;9.00;;
3261;SDS011;1643;47.746;9.000;2022-10-31T13:01:14;9.53;;;8.47;;
3261;SDS011;1643;47.746;9.000;2022-10-31T13:03:53;10.30;;;9.20;;
3261;SDS011;1643;47.746;9.000;2022-10-31T13:06:22;14.00;;;10.73;;
3261;SDS011;1643;47.746;9.000;2022-10-31T13:09:23;10.10;;;8.97;;
3261;SDS011;1643;47.746;9.000;2022-10-31T13:11:45;10.43;;;9.20;;
3261;SDS011;1643;47.746;9.000;2022-10-31T13:17:10;14.43;;;11.30;;
3261;SDS011;1643;47.746;9.000;2022-10-31T13:19:41;14.50;;;12.20;;
3261;SDS011;1643;47.746;9.000;2022-10-31T13:22:09;20.53;;;11.60;;
3261;SDS011;1643;47.746;9.000;2022-10-31T13:24:36;13.90;;;11.90;;
3261;SDS011;1643;47.746;9.000;2022-10-31T13:27:10;13.80;;;11.30;;
3261;SDS011;1643;47.746;9.000;2022-10-31T13:29:39;16.10;;;12.10;;
3261;SDS011;1643;47.746;9.000;2022-10-31T13:32:06;14.30;;;11.87;;
3261;SDS011;1643;47.746;9.000;2022-10-31T13:34:36;12.80;;;11.23;;
3261;SDS011;1643;47.746;9.000;2022-10-31T13:37:12;15.10;;;12.00;;
3261;SDS011;1643;47.746;9.000;2022-10-31T13:39:45;15.13;;;12.30;;
3261;SDS011;1643;47.746;9.000;2022-10-31T13:44:49;13.23;;;11.40;;
3261;SDS011;1643;47.746;9.000;2022-10-31T13:47:28;12.13;;;10.93;;
3261;SDS011;1643;47.746;9.000;2022-10-31T13:50:18;12.93;;;10.73;;
3261;SDS011;1643;47.746;9.000;2022-10-31T13:52:44;12.10;;;9.80;;
3261;SDS011;1643;47.746;9.000;2022-10-31T13:57:55;13.60;;;11.17;;
3261;SDS011;1643;47.746;9.000;2022-10-31T14:00:25;13.80;;;11.93;;
3261;SDS011;1643;47.746;9.000;2022-10-31T14:02:52;14.93;;;11.90;;
3261;SDS011;1643;47.746;9.000;2022-10-31T14:07:45;17.07;;;12.70;;
3261;SDS011;1643;47.746;9.000;2022-10-31T14:13:06;16.73;;;13.47;;
3261;SDS011;1643;47.746;9.000;2022-10-31T14:15:33;14.00;;;11.83;;
3261;SDS011;1643;47.746;9.000;2022-10-31T14:18:01;21.93;;;12.87;;
3261;SDS011;1643;47.746;9.000;2022-10-31T14:25:38;13.80;;;11.90;;
3261;SDS011;1643;47.746;9.000;2022-10-31T14:31:21;14.80;;;12.00;;
3261;SDS011;1643;47.746;9.000;2022-10-31T14:33:48;14.90;;;11.00;;
3261;SDS011;1643;47.746;9.000;2022-10-31T14:36:19;13.40;;;10.93;;
3261;SDS011;1643;47.746;9.000;2022-10-31T14:52:14;13.43;;;11.27;;
3261;SDS011;1643;47.746;9.000;2022-10-31T14:54:46;15.00;;;11.60;;
3261;SDS011;1643;47.746;9.000;2022-10-31T14:57:24;14.97;;;11.40;;
3261;SDS011;1643;47.746;9.000;2022-10-31T14:59:52;13.83;;;11.07;;
3261;SDS011;1643;47.746;9.000;2022-10-31T15:02:24;15.27;;;11.70;;
3261;SDS011;1643;47.746;9.000;2022-10-31T15:04:52;13.30;;;11.13;;
3261;SDS011;1643;47.746;9.000;2022-10-31T15:09:44;13.80;;;11.40;;
3261;SDS011;1643;47.746;9.000;2022-10-31T15:12:43;12.67;;;10.80;;
3261;SDS011;1643;47.746;9.000;2022-10-31T15:15:20;11.70;;;9.97;;
3261;SDS011;1643;47.746;9.000;2022-10-31T15:17:52;11.00;;;9.40;;
3261;SDS011;1643;47.746;9.000;2022-10-31T15:20:20;16.83;;;10.13;;
3261;SDS011;1643;47.746;9.000;2022-10-31T15:22:48;11.03;;;9.47;;
3261;SDS011;1643;47.746;9.000;2022-10-31T15:25:18;11.10;;;10.00;;
3261;SDS011;1643;47.746;9.000;2022-10-31T15:27:45;12.30;;;10.30;;
3261;SDS011;1643;47.746;9.000;2022-10-31T15:30:25;18.00;;;12.33;;
3261;SDS011;1643;47.746;9.000;2022-10-31T15:32:51;11.43;;;10.30;;
3261;SDS011;1643;47.746;9.000;2022-10-31T15:35:25;14.60;;;11.90;;
3261;SDS011;1643;47.746;9.000;2022-10-31T15:37:52;10.53;;;9.43;;
3261;SDS011;1643;47.746;9.000;2022-10-31T15:40:19;9.30;;;8.13;;
3261;SDS011;1643;47.746;9.000;2022-10-31T15:42:50;9.80;;;8.80;;
3261;SDS011;1643;47.746;9.000;2022-10-31T15:45:18;10.13;;;8.60;;
3261;SDS011;1643;47.746;9.000;2022-10-31T15:47:53;12.30;;;9.53;;
3261;SDS011;1643;47.746;9.000;2022-10-31T15:50:31;11.47;;;10.30;;
3261;SDS011;1643;47.746;9.000;2022-10-31T15:52:58;11.07;;;9.73;;
3261;SDS011;1643;47.746;9.000;2022-10-31T15:55:25;10.63;;;8.93;;
3261;SDS011;1643;47.746;9.000;2022-10-31T15:57:55;10.10;;;9.10;;
3261;SDS011;1643;47.746;9.000;2022-10-31T16:02:47;13.97;;;9.70;;
3261;SDS011;1643;47.746;9.000;2022-10-31T16:05:17;15.23;;;12.33;;
3261;SDS011;1643;47.746;9.000;2022-10-31T16:07:50;18.50;;;14.13;;
3261;SDS011;1643;47.746;9.000;2022-10-31T16:10:26;13.87;;;11.30;;
3261;SDS011;1643;47.746;9.000;2022-10-31T16:12:52;12.87;;;10.97;;
3261;SDS011;1643;47.746;9.000;2022-10-31T16:15:19;14.70;;;11.57;;
3261;SDS011;1643;47.746;9.000;2022-10-31T16:17:46;12.60;;;10.23;;
3261;SDS011;1643;47.746;9.000;2022-10-31T16:20:21;15.40;;;12.10;;
3261;SDS011;1643;47.746;9.000;2022-10-31T16:22:49;13.53;;;11.10;;
3261;SDS011;1643;47.746;9.000;2022-10-31T16:25:18;18.83;;;14.40;;
3261;SDS011;1643;47.746;9.000;2022-10-31T16:27:49;13.80;;;11.97;;
3261;SDS011;1643;47.746;9.000;2022-10-31T16:33:02;12.60;;;10.67;;
3261;SDS011;1643;47.746;9.000;2022-10-31T16:37:54;15.50;;;8.90;;
3261;SDS011;1643;47.746;9.000;2022-10-31T16:40:20;9.60;;;8.60;;
3261;SDS011;1643;47.746;9.000;2022-10-31T16:42:46;11.00;;;9.80;;
3261;SDS011;1643;47.746;9.000;2022-10-31T16:45:24;11.63;;;8.37;;
3261;SDS011;1643;47.746;9.000;2022-10-31T16:47:50;11.20;;;9.57;;
3261;SDS011;1643;47.746;9.000;2022-10-31T16:50:24;10.13;;;9.03;;
3261;SDS011;1643;47.746;9.000;2022-10-31T16:52:50;11.43;;;10.23;;
3261;SDS011;1643;47.746;9.000;2022-10-31T16:55:17;11.30;;;9.87;;
3261;SDS011;1643;47.746;9.000;2022-10-31T16:57:48;13.93;;;11.47;;
3261;SDS011;1643;47.746;9.000;2022-10-31T17:00:16;11.67;;;9.57;;
3261;SDS011;1643;47.746;9.000;2022-10-31T17:02:42;13.27;;;9.57;;
3261;SDS011;1643;47.746;9.000;2022-10-31T17:05:12;9.40;;;8.50;;
3261;SDS011;1643;47.746;9.000;2022-10-31T17:07:39;11.30;;;9.90;;
3261;SDS011;1643;47.746;9.000;2022-10-31T17:10:05;9.27;;;8.37;;
3261;SDS011;1643;47.746;9.000;2022-10-31T17:12:31;8.97;;;8.03;;
3261;SDS011;1643;47.746;9.000;2022-10-31T17:14:57;12.07;;;10.07;;
3261;SDS011;1643;47.746;9.000;2022-10-31T17:17:23;10.67;;;9.50;;
3261;SDS011;1643;47.746;9.000;2022-10-31T17:19:49;20.80;;;11.03;;
3261;SDS011;1643;47.746;9.000;2022-10-31T17:22:15;14.40;;;12.63;;
3261;SDS011;1643;47.746;9.000;2022-10-31T17:24:41;11.20;;;10.10;;
3261;SDS011;1643;47.746;9.000;2022-10-31T17:27:07;9.70;;;8.70;;
3261;SDS011;1643;47.746;9.000;2022-10-31T17:29:33;9.60;;;8.60;;
3261;SDS011;1643;47.746;9.000;2022-10-31T17:32:00;8.87;;;8.03;;